sensor_id;sensor_type;location;lat;lon;timestamp;pressure;altitude;pressure_sealevel;temperature;humidity
68793;BME280;55778;54.346;10.210;2023-03-03T00:01:22;102041.56;;;1.49;100.00
68793;BME280;55778;54.346;10.210;2023-03-03T00:03:51;102029.25;;;1.43;100.00
68793;BME280;55778;54.346;10.210;2023-03-03T00:06:17;102031.13;;;1.41;100.00
68793;BME280;55778;54.346;10.210;2023-03-03T00:08:43;102034.63;;;1.43;100.00
68793;BME280;55778;54.346;10.210;2023-03-03T00:11:09;102031.50;;;1.31;100.00
68793;BME280;55778;54.346;10.210;2023-03-03T00:13:54;102041.50;;;1.27;100.00
68793;BME280;55778;54.346;10.210;2023-03-03T00:16:27;102043.47;;;1.22;100.00
68793;BME280;55778;54.346;10.210;2023-03-03T00:18:54;102036.56;;;1.15;100.00
68793;BME280;55778;54.346;10.210;2023-03-03T00:24:22;102032.19;;;1.13;100.00
68793;BME280;55778;54.346;10.210;2023-03-03T00:26:56;102032.44;;;1.07;100.00
68793;BME280;55778;54.346;10.210;2023-03-03T00:29:32;102034.91;;;1.11;100.00
68793;BME280;55778;54.346;10.210;2023-03-03T00:32:21;102029.84;;;1.04;100.00
68793;BME280;55778;54.346;10.210;2023-03-03T00:34:48;102026.59;;;0.94;100.00
68793;BME280;55778;54.346;10.210;2023-03-03T00:37:34;102042.09;;;0.86;100.00
68793;BME280;55778;54.346;10.210;2023-03-03T00:40:20;102042.13;;;0.85;100.00
68793;BME280;55778;54.346;10.210;2023-03-03T00:42:49;102037.56;;;0.88;100.00
68793;BME280;55778;54.346;10.210;2023-03-03T00:45:29;102033.13;;;0.87;100.00
68793;BME280;55778;54.346;10.210;2023-03-03T00:47:56;102028.03;;;0.80;100.00
68793;BME280;55778;54.346;10.210;2023-03-03T00:50:29;102025.34;;;0.80;100.00
68793;BME280;55778;54.346;10.210;2023-03-03T00:53:06;102024.63;;;0.75;100.00
68793;BME280;55778;54.346;10.210;2023-03-03T00:55:35;102030.25;;;0.67;100.00
68793;BME280;55778;54.346;10.210;2023-03-03T00:58:00;102028.75;;;0.59;100.00
68793;BME280;55778;54.346;10.210;2023-03-03T01:00:25;102034.06;;;0.60;100.00
68793;BME280;55778;54.346;10.210;2023-03-03T01:02:51;102034.97;;;0.61;100.00
68793;BME280;55778;54.346;10.210;2023-03-03T01:05:19;102026.97;;;0.59;100.00
68793;BME280;55778;54.346;10.210;2023-03-03T01:07:44;102024.50;;;0.53;100.00
68793;BME280;55778;54.346;10.210;2023-03-03T01:10:11;102027.34;;;0.49;100.00
68793;BME280;55778;54.346;10.210;2023-03-03T01:12:36;102030.75;;;0.52;100.00
68793;BME280;55778;54.346;10.210;2023-03-03T01:15:05;102027.97;;;0.55;100.00
68793;BME280;55778;54.346;10.210;2023-03-03T01:17:30;102021.88;;;0.52;100.00
68793;BME280;55778;54.346;10.210;2023-03-03T01:19:56;102022.88;;;0.48;100.00
68793;BME280;55778;54.346;10.210;2023-03-03T01:22:21;102017.72;;;0.42;100.00
68793;BME280;55778;54.346;10.210;2023-03-03T01:24:47;102014.03;;;0.46;100.00
68793;BME280;55778;54.346;10.210;2023-03-03T01:27:12;102015.88;;;0.44;100.00
68793;BME280;55778;54.346;10.210;2023-03-03T01:29:37;102018.59;;;0.42;100.00
68793;BME280;55778;54.346;10.210;2023-03-03T01:32:03;102008.81;;;0.41;100.00
68793;BME280;55778;54.346;10.210;2023-03-03T01:34:28;102003.19;;;0.49;100.00
68793;BME280;55778;54.346;10.210;2023-03-03T01:36:53;102005.00;;;0.48;100.00
68793;BME280;55778;54.346;10.210;2023-03-03T01:39:19;102001.78;;;0.37;100.00
68793;BME280;55778;54.346;10.210;2023-03-03T01:41:44;101998.44;;;0.31;100.00
68793;BME280;55778;54.346;10.210;2023-03-03T01:44:14;102001.34;;;0.25;100.00
68793;BME280;55778;54.346;10.210;2023-03-03T01:46:53;101997.31;;;0.12;100.00
68793;BME280;55778;54.346;10.210;2023-03-03T01:49:30;101999.84;;;0.16;100.00
68793;BME280;55778;54.346;10.210;2023-03-03T01:52:10;101991.66;;;0.21;100.00
68793;BME280;55778;54.346;10.210;2023-03-03T01:54:41;101996.28;;;0.16;100.00
68793;BME280;55778;54.346;10.210;2023-03-03T01:57:16;101999.06;;;0.13;100.00
68793;BME280;55778;54.346;10.210;2023-03-03T01:59:46;101997.91;;;0.20;100.00
68793;BME280;55778;54.346;10.210;2023-03-03T02:02:13;101992.75;;;0.14;100.00
68793;BME280;55778;54.346;10.210;2023-03-03T02:04:39;101994.59;;;0.13;100.00
68793;BME280;55778;54.346;10.210;2023-03-03T02:07:08;101989.22;;;0.13;100.00
68793;BME280;55778;54.346;10.210;2023-03-03T02:09:54;101997.31;;;0.12;100.00
68793;BME280;55778;54.346;10.210;2023-03-03T02:12:27;101997.00;;;0.21;100.00
68793;BME280;55778;54.346;10.210;2023-03-03T02:14:55;102001.00;;;0.08;100.00
68793;BME280;55778;54.346;10.210;2023-03-03T02:17:21;102004.09;;;-0.05;100.00
68793;BME280;55778;54.346;10.210;2023-03-03T02:22:36;102008.38;;;0.01;100.00
68793;BME280;55778;54.346;10.210;2023-03-03T02:25:04;102008.31;;;0.03;100.00
68793;BME280;55778;54.346;10.210;2023-03-03T02:27:32;102014.66;;;0.00;100.00
68793;BME280;55778;54.346;10.210;2023-03-03T02:30:11;102012.53;;;-0.17;100.00
68793;BME280;55778;54.346;10.210;2023-03-03T02:32:37;102010.06;;;0.03;100.00
68793;BME280;55778;54.346;10.210;2023-03-03T02:35:30;102004.72;;;0.03;100.00
68793;BME280;55778;54.346;10.210;2023-03-03T02:38:06;101997.00;;;-0.07;100.00
68793;BME280;55778;54.346;10.210;2023-03-03T02:40:39;101984.69;;;-0.13;100.00
68793;BME280;55778;54.346;10.210;2023-03-03T02:43:07;101993.47;;;-0.08;100.00
68793;BME280;55778;54.346;10.210;2023-03-03T02:45:43;101991.81;;;-0.12;100.00
68793;BME280;55778;54.346;10.210;2023-03-03T02:48:09;101996.97;;;-0.06;100.00
68793;BME280;55778;54.346;10.210;2023-03-03T02:50:34;102000.63;;;-0.08;100.00
68793;BME280;55778;54.346;10.210;2023-03-03T02:53:00;102001.47;;;-0.06;100.00
68793;BME280;55778;54.346;10.210;2023-03-03T02:55:25;101998.03;;;-0.11;100.00
68793;BME280;55778;54.346;10.210;2023-03-03T02:57:51;101987.72;;;-0.23;100.00
68793;BME280;55778;54.346;10.210;2023-03-03T03:00:16;101992.22;;;-0.25;100.00
68793;BME280;55778;54.346;10.210;2023-03-03T03:02:41;101980.63;;;-0.24;100.00
68793;BME280;55778;54.346;10.210;2023-03-03T03:05:08;101971.84;;;-0.29;100.00
68793;BME280;55778;54.346;10.210;2023-03-03T03:07:33;101977.25;;;-0.31;100.00
68793;BME280;55778;54.346;10.210;2023-03-03T03:09:58;101985.09;;;-0.25;100.00
68793;BME280;55778;54.346;10.210;2023-03-03T03:12:24;101975.31;;;-0.26;100.00
68793;BME280;55778;54.346;10.210;2023-03-03T03:14:49;101973.56;;;-0.28;100.00
68793;BME280;55778;54.346;10.210;2023-03-03T03:17:15;101973.81;;;-0.36;100.00
68793;BME280;55778;54.346;10.210;2023-03-03T03:19:40;101974.00;;;-0.40;100.00
68793;BME280;55778;54.346;10.210;2023-03-03T03:22:05;101967.00;;;-0.46;100.00
68793;BME280;55778;54.346;10.210;2023-03-03T03:24:31;101964.50;;;-0.52;100.00
68793;BME280;55778;54.346;10.210;2023-03-03T03:26:56;101961.69;;;-0.47;100.00
68793;BME280;55778;54.346;10.210;2023-03-03T03:29:21;101954.69;;;-0.51;100.00
68793;BME280;55778;54.346;10.210;2023-03-03T03:31:47;101951.13;;;-0.52;100.00
68793;BME280;55778;54.346;10.210;2023-03-03T03:34:12;101959.81;;;-0.44;100.00
68793;BME280;55778;54.346;10.210;2023-03-03T03:36:38;101954.16;;;-0.35;100.00
68793;BME280;55778;54.346;10.210;2023-03-03T03:39:04;101946.28;;;-0.39;100.00
68793;BME280;55778;54.346;10.210;2023-03-03T03:41:31;101946.75;;;-0.54;100.00
68793;BME280;55778;54.346;10.210;2023-03-03T03:43:56;101947.81;;;-0.60;100.00
68793;BME280;55778;54.346;10.210;2023-03-03T03:46:22;101951.50;;;-0.64;100.00
68793;BME280;55778;54.346;10.210;2023-03-03T03:48:47;101956.22;;;-0.72;100.00
68793;BME280;55778;54.346;10.210;2023-03-03T03:51:13;101956.63;;;-0.85;100.00
68793;BME280;55778;54.346;10.210;2023-03-03T03:53:38;101961.03;;;-0.84;100.00
68793;BME280;55778;54.346;10.210;2023-03-03T03:56:04;101954.94;;;-0.88;100.00
68793;BME280;55778;54.346;10.210;2023-03-03T03:58:29;101951.59;;;-0.96;100.00
68793;BME280;55778;54.346;10.210;2023-03-03T04:01:01;101954.88;;;-0.86;100.00
68793;BME280;55778;54.346;10.210;2023-03-03T04:03:27;101964.66;;;-0.85;100.00
68793;BME280;55778;54.346;10.210;2023-03-03T04:05:52;101963.81;;;-0.87;100.00
68793;BME280;55778;54.346;10.210;2023-03-03T04:08:19;101968.25;;;-0.86;100.00
68793;BME280;55778;54.346;10.210;2023-03-03T04:10:44;101960.09;;;-0.82;100.00
68793;BME280;55778;54.346;10.210;2023-03-03T04:13:10;101976.19;;;-0.83;100.00
68793;BME280;55778;54.346;10.210;2023-03-03T04:15:35;101971.84;;;-0.87;100.00
68793;BME280;55778;54.346;10.210;2023-03-03T04:18:00;101977.22;;;-0.89;100.00
68793;BME280;55778;54.346;10.210;2023-03-03T04:20:26;101983.56;;;-0.91;100.00
68793;BME280;55778;54.346;10.210;2023-03-03T04:22:51;101979.22;;;-0.95;100.00
68793;BME280;55778;54.346;10.210;2023-03-03T04:25:19;101981.81;;;-0.92;100.00
68793;BME280;55778;54.346;10.210;2023-03-03T04:27:45;101968.53;;;-0.95;100.00
68793;BME280;55778;54.346;10.210;2023-03-03T04:30:12;101965.84;;;-0.95;100.00
68793;BME280;55778;54.346;10.210;2023-03-03T04:32:38;101962.72;;;-1.11;100.00
68793;BME280;55778;54.346;10.210;2023-03-03T04:35:04;101963.41;;;-1.03;100.00
68793;BME280;55778;54.346;10.210;2023-03-03T04:37:29;101952.56;;;-0.98;100.00
68793;BME280;55778;54.346;10.210;2023-03-03T04:39:55;101949.66;;;-0.91;100.00
68793;BME280;55778;54.346;10.210;2023-03-03T04:42:20;101949.63;;;-0.89;100.00
68793;BME280;55778;54.346;10.210;2023-03-03T04:44:45;101966.66;;;-0.93;100.00
68793;BME280;55778;54.346;10.210;2023-03-03T04:47:11;101972.72;;;-0.87;100.00
68793;BME280;55778;54.346;10.210;2023-03-03T04:49:36;101972.56;;;-0.81;100.00
68793;BME280;55778;54.346;10.210;2023-03-03T04:52:02;101969.16;;;-0.87;100.00
68793;BME280;55778;54.346;10.210;2023-03-03T04:54:28;101961.00;;;-0.83;100.00
68793;BME280;55778;54.346;10.210;2023-03-03T04:56:53;101972.56;;;-0.81;100.00
68793;BME280;55778;54.346;10.210;2023-03-03T04:59:19;101977.84;;;-0.79;100.00
68793;BME280;55778;54.346;10.210;2023-03-03T05:01:44;101972.72;;;-0.87;100.00
68793;BME280;55778;54.346;10.210;2023-03-03T05:04:11;101971.75;;;-0.84;100.00
68793;BME280;55778;54.346;10.210;2023-03-03T05:06:36;101969.69;;;-0.75;100.00
68793;BME280;55778;54.346;10.210;2023-03-03T05:09:01;101976.16;;;-0.53;100.00
68793;BME280;55778;54.346;10.210;2023-03-03T05:11:27;101979.72;;;-0.52;100.00
68793;BME280;55778;54.346;10.210;2023-03-03T05:13:52;101970.28;;;-0.65;100.00
68793;BME280;55778;54.346;10.210;2023-03-03T05:16:17;101970.16;;;-0.61;100.00
68793;BME280;55778;54.346;10.210;2023-03-03T05:18:43;101978.16;;;-0.61;100.00
68793;BME280;55778;54.346;10.210;2023-03-03T05:21:10;101985.47;;;-0.66;100.00
68793;BME280;55778;54.346;10.210;2023-03-03T05:23:35;101988.78;;;-0.58;100.00
68793;BME280;55778;54.346;10.210;2023-03-03T05:26:01;101981.56;;;-0.54;100.00
68793;BME280;55778;54.346;10.210;2023-03-03T05:28:27;101973.66;;;-0.59;100.00
68793;BME280;55778;54.346;10.210;2023-03-03T05:30:52;101975.69;;;-0.67;100.00
68793;BME280;55778;54.346;10.210;2023-03-03T05:33:17;101983.56;;;-0.62;100.00
68793;BME280;55778;54.346;10.210;2023-03-03T05:35:43;101988.13;;;-0.64;100.00
68793;BME280;55778;54.346;10.210;2023-03-03T05:38:09;101987.09;;;-0.60;100.00
68793;BME280;55778;54.346;10.210;2023-03-03T05:40:35;101991.66;;;-0.64;100.00
68793;BME280;55778;54.346;10.210;2023-03-03T05:43:01;101996.09;;;-0.63;100.00
68793;BME280;55778;54.346;10.210;2023-03-03T05:45:26;101997.03;;;-0.65;100.00
68793;BME280;55778;54.346;10.210;2023-03-03T05:47:52;102002.31;;;-0.62;100.00
68793;BME280;55778;54.346;10.210;2023-03-03T05:50:19;101993.19;;;-0.55;100.00
68793;BME280;55778;54.346;10.210;2023-03-03T05:52:49;101990.47;;;-0.54;100.00
68793;BME280;55778;54.346;10.210;2023-03-03T05:55:14;101985.94;;;-0.52;100.00
68793;BME280;55778;54.346;10.210;2023-03-03T05:57:40;101989.44;;;-0.50;100.00
68793;BME280;55778;54.346;10.210;2023-03-03T06:00:06;101977.47;;;-0.38;100.00
68793;BME280;55778;54.346;10.210;2023-03-03T06:02:34;101981.03;;;-0.38;100.00
68793;BME280;55778;54.346;10.210;2023-03-03T06:04:59;101974.91;;;-0.41;100.00
68793;BME280;55778;54.346;10.210;2023-03-03T06:07:25;101970.25;;;-0.35;100.00
68793;BME280;55778;54.346;10.210;2023-03-03T06:09:51;101973.81;;;-0.36;100.00
68793;BME280;55778;54.346;10.210;2023-03-03T06:12:16;101977.06;;;-0.25;100.00
68793;BME280;55778;54.346;10.210;2023-03-03T06:14:42;101968.38;;;-0.33;100.00
68793;BME280;55778;54.346;10.210;2023-03-03T06:17:07;101971.94;;;-0.32;100.00
68793;BME280;55778;54.346;10.210;2023-03-03T06:19:33;101975.50;;;-0.32;100.00
68793;BME280;55778;54.346;10.210;2023-03-03T06:21:58;101977.28;;;-0.32;100.00
68793;BME280;55778;54.346;10.210;2023-03-03T06:24:24;101971.84;;;-0.29;100.00
68793;BME280;55778;54.346;10.210;2023-03-03T06:26:54;101974.41;;;-0.26;100.00
68793;BME280;55778;54.346;10.210;2023-03-03T06:29:19;101979.88;;;-0.29;100.00
68793;BME280;55778;54.346;10.210;2023-03-03T06:31:45;101981.63;;;-0.28;100.00
68793;BME280;55778;54.346;10.210;2023-03-03T06:34:10;101983.44;;;-0.29;100.00
68793;BME280;55778;54.346;10.210;2023-03-03T06:36:36;101984.25;;;-0.27;100.00
68793;BME280;55778;54.346;10.210;2023-03-03T06:39:01;101986.13;;;-0.29;100.00
68793;BME280;55778;54.346;10.210;2023-03-03T06:41:26;101990.34;;;-0.22;100.00
68793;BME280;55778;54.346;10.210;2023-03-03T06:43:52;101999.41;;;-0.26;100.00
68793;BME280;55778;54.346;10.210;2023-03-03T06:46:17;101991.31;;;-0.24;100.00
68793;BME280;55778;54.346;10.210;2023-03-03T06:48:43;101991.94;;;-0.16;100.00
68793;BME280;55778;54.346;10.210;2023-03-03T06:53:44;101997.19;;;-0.13;100.00
68793;BME280;55778;54.346;10.210;2023-03-03T06:56:10;101994.56;;;-0.15;100.00
68793;BME280;55778;54.346;10.210;2023-03-03T06:58:35;102002.50;;;-0.12;100.00
68793;BME280;55778;54.346;10.210;2023-03-03T07:01:00;102006.88;;;-0.08;100.00
68793;BME280;55778;54.346;10.210;2023-03-03T07:03:33;102004.56;;;-0.20;100.00
68793;BME280;55778;54.346;10.210;2023-03-03T07:06:00;102001.84;;;-0.18;100.00
68793;BME280;55778;54.346;10.210;2023-03-03T07:08:29;102007.69;;;-0.06;100.00
68793;BME280;55778;54.346;10.210;2023-03-03T07:11:00;102013.03;;;-0.06;100.00
68793;BME280;55778;54.346;10.210;2023-03-03T07:13:29;102009.13;;;0.04;100.00
68793;BME280;55778;54.346;10.210;2023-03-03T07:16:00;102005.75;;;-0.01;100.00
68793;BME280;55778;54.346;10.210;2023-03-03T07:18:38;102005.72;;;0.27;100.00
68793;BME280;55778;54.346;10.210;2023-03-03T07:23:39;101998.13;;;0.14;100.00
68793;BME280;55778;54.346;10.210;2023-03-03T07:26:32;102009.13;;;0.04;100.00
68793;BME280;55778;54.346;10.210;2023-03-03T07:29:22;102009.78;;;0.39;100.00
68793;BME280;55778;54.346;10.210;2023-03-03T07:31:50;102015.38;;;0.33;100.00
68793;BME280;55778;54.346;10.210;2023-03-03T07:36:41;102027.84;;;0.34;100.00
68793;BME280;55778;54.346;10.210;2023-03-03T07:42:47;102016.59;;;0.49;100.00
68793;BME280;55778;54.346;10.210;2023-03-03T07:45:24;102013.63;;;0.58;100.00
68793;BME280;55778;54.346;10.210;2023-03-03T07:47:50;102013.75;;;1.04;100.00
68793;BME280;55778;54.346;10.210;2023-03-03T07:50:18;102012.34;;;0.92;100.00
68793;BME280;55778;54.346;10.210;2023-03-03T07:55:38;102003.78;;;0.83;100.00
68793;BME280;55778;54.346;10.210;2023-03-03T08:03:07;102015.03;;;0.92;100.00
68793;BME280;55778;54.346;10.210;2023-03-03T08:05:39;102013.25;;;0.93;100.00
68793;BME280;55778;54.346;10.210;2023-03-03T08:13:20;102005.13;;;0.94;100.00
68793;BME280;55778;54.346;10.210;2023-03-03T08:15:49;102010.78;;;0.87;100.00
68793;BME280;55778;54.346;10.210;2023-03-03T08:20:50;102020.88;;;0.79;100.00
68793;BME280;55778;54.346;10.210;2023-03-03T08:23:18;102022.50;;;0.84;100.00
68793;BME280;55778;54.346;10.210;2023-03-03T08:25:44;102020.41;;;0.92;100.00
68793;BME280;55778;54.346;10.210;2023-03-03T08:28:10;102014.59;;;1.04;100.00
68793;BME280;55778;54.346;10.210;2023-03-03T08:30:35;102028.88;;;1.29;100.00
68793;BME280;55778;54.346;10.210;2023-03-03T08:33:01;102027.69;;;1.13;100.00
68793;BME280;55778;54.346;10.210;2023-03-03T08:35:26;102027.41;;;1.21;100.00
68793;BME280;55778;54.346;10.210;2023-03-03T08:37:52;102026.34;;;1.02;100.00
68793;BME280;55778;54.346;10.210;2023-03-03T08:40:17;102032.66;;;1.01;100.00
68793;BME280;55778;54.346;10.210;2023-03-03T08:42:42;102030.59;;;1.32;100.00
68793;BME280;55778;54.346;10.210;2023-03-03T08:45:08;102031.19;;;1.63;100.00
68793;BME280;55778;54.346;10.210;2023-03-03T08:47:33;102024.63;;;1.70;100.00
68793;BME280;55778;54.346;10.210;2023-03-03T08:49:59;102025.81;;;1.63;100.00
68793;BME280;55778;54.346;10.210;2023-03-03T08:52:24;102028.19;;;1.93;100.00
68793;BME280;55778;54.346;10.210;2023-03-03T08:54:51;102015.19;;;2.04;100.00
68793;BME280;55778;54.346;10.210;2023-03-03T08:57:16;102019.88;;;2.21;100.00
68793;BME280;55778;54.346;10.210;2023-03-03T08:59:43;102016.63;;;2.13;100.00
68793;BME280;55778;54.346;10.210;2023-03-03T09:02:08;102015.75;;;2.13;100.00
68793;BME280;55778;54.346;10.210;2023-03-03T09:04:33;102014.94;;;2.32;100.00
68793;BME280;55778;54.346;10.210;2023-03-03T09:06:59;102014.75;;;2.78;100.00
68793;BME280;55778;54.346;10.210;2023-03-03T09:09:24;102016.34;;;2.82;100.00
68793;BME280;55778;54.346;10.210;2023-03-03T09:11:53;102005.78;;;3.18;100.00
68793;BME280;55778;54.346;10.210;2023-03-03T09:14:27;101999.50;;;3.37;100.00
68793;BME280;55778;54.346;10.210;2023-03-03T09:16:53;102003.38;;;3.87;100.00
68793;BME280;55778;54.346;10.210;2023-03-03T09:19:31;102001.13;;;3.78;100.00
68793;BME280;55778;54.346;10.210;2023-03-03T09:22:23;102002.72;;;4.01;100.00
68793;BME280;55778;54.346;10.210;2023-03-03T09:24:51;101993.72;;;3.65;100.00
68793;BME280;55778;54.346;10.210;2023-03-03T09:29:45;102006.22;;;3.84;100.00
68793;BME280;55778;54.346;10.210;2023-03-03T09:32:30;101998.63;;;4.11;100.00
68793;BME280;55778;54.346;10.210;2023-03-03T09:34:57;101999.25;;;3.80;100.00
68793;BME280;55778;54.346;10.210;2023-03-03T09:37:28;101988.22;;;3.48;100.00
68793;BME280;55778;54.346;10.210;2023-03-03T09:39:56;101987.56;;;3.80;100.00
68793;BME280;55778;54.346;10.210;2023-03-03T09:48:26;101985.44;;;4.24;100.00
68793;BME280;55778;54.346;10.210;2023-03-03T09:54:06;101978.91;;;4.28;100.00
68793;BME280;55778;54.346;10.210;2023-03-03T09:56:40;101978.88;;;4.63;100.00
68793;BME280;55778;54.346;10.210;2023-03-03T10:04:55;101969.28;;;4.92;100.00
68793;BME280;55778;54.346;10.210;2023-03-03T10:07:38;101965.41;;;4.80;97.75
68793;BME280;55778;54.346;10.210;2023-03-03T10:11:08;101964.84;;;4.74;99.93
68793;BME280;55778;54.346;10.210;2023-03-03T10:18:40;101967.03;;;4.49;100.00
68793;BME280;55778;54.346;10.210;2023-03-03T10:21:08;101958.78;;;4.52;100.00
68793;BME280;55778;54.346;10.210;2023-03-03T10:26:33;101962.19;;;5.39;96.59
68793;BME280;55778;54.346;10.210;2023-03-03T10:29:26;101949.81;;;5.02;94.94
68793;BME280;55778;54.346;10.210;2023-03-03T10:32:31;101948.59;;;5.08;97.13
68793;BME280;55778;54.346;10.210;2023-03-03T10:43:57;101956.28;;;5.15;95.89
68793;BME280;55778;54.346;10.210;2023-03-03T10:49:25;101942.69;;;4.67;94.31
68793;BME280;55778;54.346;10.210;2023-03-03T10:51:59;101935.38;;;4.69;95.15
68793;BME280;55778;54.346;10.210;2023-03-03T10:54:46;101942.66;;;4.84;95.69
68793;BME280;55778;54.346;10.210;2023-03-03T11:05:39;101925.66;;;4.99;95.22
68793;BME280;55778;54.346;10.210;2023-03-03T11:19:45;101932.19;;;4.95;93.36
68793;BME280;55778;54.346;10.210;2023-03-03T11:33:48;101907.97;;;4.77;95.07
68793;BME280;55778;54.346;10.210;2023-03-03T11:36:22;101909.81;;;4.76;96.04
68793;BME280;55778;54.346;10.210;2023-03-03T11:38:58;101905.28;;;4.77;94.90
68793;BME280;55778;54.346;10.210;2023-03-03T11:47:03;101902.88;;;5.20;93.80
68793;BME280;55778;54.346;10.210;2023-03-03T11:49:42;101903.13;;;5.16;94.44
68793;BME280;55778;54.346;10.210;2023-03-03T11:57:44;101907.06;;;5.10;93.94
68793;BME280;55778;54.346;10.210;2023-03-03T12:00:40;101888.56;;;5.03;93.57
68793;BME280;55778;54.346;10.210;2023-03-03T12:03:28;101891.19;;;5.04;93.28
68793;BME280;55778;54.346;10.210;2023-03-03T12:30:38;101856.44;;;5.45;93.15
68793;BME280;55778;54.346;10.210;2023-03-03T12:33:20;101861.16;;;5.41;93.22
68793;BME280;55778;54.346;10.210;2023-03-03T12:39:23;101855.00;;;5.22;93.66
68793;BME280;55778;54.346;10.210;2023-03-03T12:47:50;101835.84;;;5.73;91.70
68793;BME280;55778;54.346;10.210;2023-03-03T12:50:35;101838.56;;;5.73;88.90
68793;BME280;55778;54.346;10.210;2023-03-03T12:53:11;101831.41;;;5.72;87.33
68793;BME280;55778;54.346;10.210;2023-03-03T12:56:00;101830.00;;;5.65;88.37
68793;BME280;55778;54.346;10.210;2023-03-03T12:59:29;101821.66;;;5.54;88.04
68793;BME280;55778;54.346;10.210;2023-03-03T13:04:27;101809.34;;;5.80;87.46
68793;BME280;55778;54.346;10.210;2023-03-03T13:06:58;101813.16;;;5.76;87.44
68793;BME280;55778;54.346;10.210;2023-03-03T13:09:32;101794.84;;;5.65;87.06
68793;BME280;55778;54.346;10.210;2023-03-03T13:20:04;101795.56;;;5.84;85.60
68793;BME280;55778;54.346;10.210;2023-03-03T13:22:45;101769.97;;;5.90;84.89
68793;BME280;55778;54.346;10.210;2023-03-03T13:28:00;101785.25;;;5.75;85.98
68793;BME280;55778;54.346;10.210;2023-03-03T13:30:32;101771.13;;;6.16;85.34
68793;BME280;55778;54.346;10.210;2023-03-03T13:33:14;101776.13;;;6.51;83.29
68793;BME280;55778;54.346;10.210;2023-03-03T13:38:30;101773.66;;;6.89;80.21
68793;BME280;55778;54.346;10.210;2023-03-03T13:43:47;101762.19;;;6.85;80.44
68793;BME280;55778;54.346;10.210;2023-03-03T13:46:19;101762.59;;;7.20;79.51
68793;BME280;55778;54.346;10.210;2023-03-03T14:05:47;101742.59;;;6.10;84.58
68793;BME280;55778;54.346;10.210;2023-03-03T14:11:09;101729.50;;;5.73;85.69
68793;BME280;55778;54.346;10.210;2023-03-03T14:16:43;101723.13;;;5.89;85.59
68793;BME280;55778;54.346;10.210;2023-03-03T14:19:42;101716.19;;;5.99;84.57
68793;BME280;55778;54.346;10.210;2023-03-03T14:22:21;101719.41;;;6.06;84.86
68793;BME280;55778;54.346;10.210;2023-03-03T14:24:58;101728.84;;;5.99;85.26
68793;BME280;55778;54.346;10.210;2023-03-03T14:38:18;101705.06;;;5.74;87.25
68793;BME280;55778;54.346;10.210;2023-03-03T14:40:45;101703.84;;;5.80;87.07
68793;BME280;55778;54.346;10.210;2023-03-03T14:43:34;101707.03;;;5.72;87.04
68793;BME280;55778;54.346;10.210;2023-03-03T14:48:53;101704.72;;;5.51;89.07
68793;BME280;55778;54.346;10.210;2023-03-03T14:53:56;101694.53;;;5.40;89.73
68793;BME280;55778;54.346;10.210;2023-03-03T14:56:32;101695.53;;;5.53;89.64
68793;BME280;55778;54.346;10.210;2023-03-03T14:59:21;101689.72;;;5.45;89.39
68793;BME280;55778;54.346;10.210;2023-03-03T15:01:56;101693.72;;;5.54;88.77
68793;BME280;55778;54.346;10.210;2023-03-03T15:04:25;101690.00;;;5.41;89.23
68793;BME280;55778;54.346;10.210;2023-03-03T15:06:53;101695.00;;;5.62;89.09
68793;BME280;55778;54.346;10.210;2023-03-03T15:09:36;101688.13;;;5.57;88.55
68793;BME280;55778;54.346;10.210;2023-03-03T15:26:06;101659.94;;;5.61;88.40
68793;BME280;55778;54.346;10.210;2023-03-03T15:29:03;101657.47;;;5.42;88.67
68793;BME280;55778;54.346;10.210;2023-03-03T15:31:48;101655.94;;;5.38;87.82
68793;BME280;55778;54.346;10.210;2023-03-03T15:34:42;101658.47;;;5.41;88.35
68793;BME280;55778;54.346;10.210;2023-03-03T15:37:38;101658.03;;;5.18;88.76
68793;BME280;55778;54.346;10.210;2023-03-03T15:48:52;101638.19;;;5.19;90.47
68793;BME280;55778;54.346;10.210;2023-03-03T15:51:46;101631.91;;;5.18;90.52
68793;BME280;55778;54.346;10.210;2023-03-03T15:54:44;101627.03;;;5.09;90.81
68793;BME280;55778;54.346;10.210;2023-03-03T16:02:49;101613.63;;;5.08;91.51
68793;BME280;55778;54.346;10.210;2023-03-03T16:05:28;101618.44;;;5.03;92.21
68793;BME280;55778;54.346;10.210;2023-03-03T16:08:10;101618.28;;;5.06;92.91
68793;BME280;55778;54.346;10.210;2023-03-03T16:10:49;101622.19;;;5.00;92.63
68793;BME280;55778;54.346;10.210;2023-03-03T16:16:17;101619.06;;;4.92;93.39
68793;BME280;55778;54.346;10.210;2023-03-03T16:23:49;101620.19;;;4.88;93.31
68793;BME280;55778;54.346;10.210;2023-03-03T16:26:42;101621.34;;;4.84;93.79
68793;BME280;55778;54.346;10.210;2023-03-03T16:32:04;101607.59;;;4.73;94.38
68793;BME280;55778;54.346;10.210;2023-03-03T16:37:18;101607.94;;;4.67;94.89
68793;BME280;55778;54.346;10.210;2023-03-03T16:42:34;101602.72;;;4.64;95.23
68793;BME280;55778;54.346;10.210;2023-03-03T16:45:34;101613.97;;;4.57;95.98
68793;BME280;55778;54.346;10.210;2023-03-03T16:51:30;101605.31;;;4.50;96.48
68793;BME280;55778;54.346;10.210;2023-03-03T16:54:07;101609.44;;;4.42;97.26
68793;BME280;55778;54.346;10.210;2023-03-03T16:56:45;101611.75;;;4.32;97.69
68793;BME280;55778;54.346;10.210;2023-03-03T16:59:34;101603.66;;;4.32;97.70
68793;BME280;55778;54.346;10.210;2023-03-03T17:02:47;101615.34;;;4.33;97.84
68793;BME280;55778;54.346;10.210;2023-03-03T17:07:37;101607.94;;;4.36;98.33
68793;BME280;55778;54.346;10.210;2023-03-03T17:18:43;101620.53;;;4.20;99.70
68793;BME280;55778;54.346;10.210;2023-03-03T17:21:24;101618.88;;;4.18;99.96